Rms Voerde — V2AD8 — position and weather

sailwx.info

Track history (hours):
 
Tides and Currents Weather Stations Pressure Air Temp Water Temp Dewpoint Dewpoint Depression Visibility Wind Speed Wind Dir Waves Ship Positions

Rms Voerde

Last reported at 2016-Jun-30 09:33 UTC. Time now 2016-Jun-30 10:31 UTC.
Position N 58°51' E 005°45'.

Length 90 m.

Type: Ship. MMSI: 304010905.

Date/timePositionNaut miles runAvg speedWind from/ knotsBaromVisibWave heightAir tempDewpointWater temp
2016-Jun-30 09:33N 58°51' E 005°45'0 0.0
2016-Jun-30 08:33N 58°51' E 005°45'0 0.0
2016-Jun-30 07:30N 58°51' E 005°45'0 0.0
2016-Jun-30 06:33N 58°51' E 005°45'0 0.0
2016-Jun-30 05:33N 58°51' E 005°45'0 0.0
2016-Jun-30 04:33N 58°51' E 005°45'0 0.0
2016-Jun-30 03:33N 58°51' E 005°45'0 0.0
2016-Jun-30 02:33N 58°51' E 005°45'0 0.0
2016-Jun-30 01:33N 58°51' E 005°45'0 0.0
2016-Jun-30 00:33N 58°51' E 005°45'0 0.0
2016-Jun-29 23:33N 58°51' E 005°45'0 0.0
2016-Jun-29 22:33N 58°51' E 005°45'0 0.0
2016-Jun-29 21:33N 58°51' E 005°45'0 0.0
2016-Jun-29 20:33N 58°51' E 005°45'0 0.0
2016-Jun-29 19:33N 58°51' E 005°45'0 0.0
2016-Jun-29 18:33N 58°51' E 005°45'0 0.0
2016-Jun-29 17:33N 58°51' E 005°45'0 0.0
2016-Jun-29 16:33N 58°51' E 005°45'0 0.0
2016-Jun-29 15:33N 58°51' E 005°45'0 0.0
2016-Jun-29 14:33N 58°51' E 005°45'2 2.2
2016-Jun-29 13:33N 58°54' E 005°45'8 7.9
2016-Jun-29 12:33N 59°01' E 005°41'6 6.4
2016-Jun-29 11:33N 58°56' E 005°33'10 9.6
2016-Jun-29 10:33N 58°48' E 005°24'1111.2
2016-Jun-29 09:33N 58°37' E 005°29'1111.3
2016-Jun-29 08:33N 58°27' E 005°40'1111.4
2016-Jun-29 07:33N 58°18' E 005°55'1111.1
2016-Jun-29 06:32N 58°11' E 006°11'1010.5
2016-Jun-29 05:33N 58°05' E 006°26'1110.6
2016-Jun-29 04:32N 57°59' E 006°44'1010.2
2016-Jun-29 03:34N 57°55' E 007°01'41 9.7
2016-Jun-28 23:21N 58°03' E 008°17'810.4
2016-Jun-28 22:33N 58°07' E 008°31'1110.7
2016-Jun-28 21:33N 58°12' E 008°48'5110.1
2016-Jun-28 16:28N 58°44' E 010°05'11 8.9
2016-Jun-28 15:15N 58°51' E 010°21'6 8.2
2016-Jun-28 14:33N 58°55' E 010°29'8 8.3
2016-Jun-28 13:33N 59°00' E 010°41'9 8.7
2016-Jun-28 12:34N 59°01' E 010°58'1010.3
2016-Jun-28 11:33N 59°11' E 010°57'0 0.2
2016-Jun-28 10:32N 59°11' E 010°57'0 0.0
2016-Jun-28 09:32N 59°11' E 010°57'0 0.0
2016-Jun-28 08:32N 59°11' E 010°57'0 0.0
2016-Jun-28 07:32N 59°11' E 010°57'0 0.0
2016-Jun-28 06:32N 59°11' E 010°57'0 0.0
2016-Jun-28 04:32N 59°11' E 010°57'0 0.0
2016-Jun-28 03:32N 59°11' E 010°57'0 0.0
2016-Jun-28 02:32N 59°11' E 010°57'0 0.0
2016-Jun-28 01:32N 59°11' E 010°57'0 0.0
2016-Jun-28 00:32N 59°11' E 010°57'0 0.2
2016-Jun-27 23:33N 59°11' E 010°57'5 5.4
2016-Jun-27 22:34N 59°09' E 010°47'10 9.8
2016-Jun-27 21:33N 59°18' E 010°41'9 8.8
2016-Jun-27 20:33N 59°25' E 010°30'0 0.0
2016-Jun-27 19:33N 59°25' E 010°30'0 0.0
2016-Jun-27 18:33N 59°25' E 010°30'0 0.0
2016-Jun-27 17:33N 59°25' E 010°30'7 7.5
2016-Jun-27 16:33N 59°18' E 010°33'1010.3
2016-Jun-27 15:33N 59°07' E 010°35'9 8.9
2016-Jun-27 14:33N 58°59' E 010°31'10 9.8
2016-Jun-27 13:33N 58°51' E 010°20'32210.6
2016-Jun-26 07:16N 54°16' E 005°16'810.2
2016-Jun-26 06:31N 54°09' E 005°10'1010.1
2016-Jun-26 05:33N 53°60' E 005°04'7110.2
2016-Jun-25 22:32N 52°54' E 004°17'2210.9
2016-Jun-25 20:32N 52°36' E 003°58'1211.5
2016-Jun-25 19:28N 52°24' E 003°53'1011.4
2016-Jun-25 18:33N 52°13' E 003°54'1111.3
2016-Jun-25 17:33N 52°03' E 003°59'9 9.5
2016-Jun-25 16:33N 51°57' E 004°11'9 8.8
2016-Jun-25 15:33N 51°54' E 004°25'0 0.2
2016-Jun-25 14:32N 51°54' E 004°25'0 0.0
2016-Jun-25 13:32N 51°54' E 004°25'0 0.0
2016-Jun-25 12:32N 51°54' E 004°25'0 0.0
2016-Jun-25 11:32N 51°54' E 004°25'0 0.0
2016-Jun-25 10:32N 51°54' E 004°25'0 0.0
2016-Jun-25 09:29N 51°54' E 004°25'0 0.0
2016-Jun-25 08:32N 51°54' E 004°25'0 0.0
2016-Jun-25 07:32N 51°54' E 004°25'0 0.0
2016-Jun-25 06:32N 51°54' E 004°25'0 0.0
2016-Jun-25 05:29N 51°54' E 004°25'0 0.0
2016-Jun-25 04:32N 51°54' E 004°25'0 0.0
2016-Jun-25 03:32N 51°54' E 004°25'0 0.0
2016-Jun-25 02:33N 51°54' E 004°25'2 2.2
2016-Jun-25 01:33N 51°54' E 004°28'9 9.0
2016-Jun-25 00:33N 51°49' E 004°41'1111.3
2016-Jun-24 23:33N 51°49' E 004°59'1211.6
2016-Jun-24 22:32N 51°49' E 005°18'56 6.8
2016-Jun-24 14:19N 51°31' E 006°43'  
Track history (hours):
 
Tides and Currents Weather Stations Pressure Air Temp Water Temp Dewpoint Dewpoint Depression Visibility Wind Speed Wind Dir Waves Ship Positions

Rms Voerde

Last reported at 2016-Jun-30 09:33 UTC. Time now 2016-Jun-30 10:31 UTC.
Position N 58°51' E 005°45'.

Length 90 m.

Type: Ship. MMSI: 304010905.

Date/timePositionNaut miles runAvg speedWind from/ knotsBaromVisibWave heightAir tempDewpointWater temp
2016-Jun-30 09:33N 58°51' E 005°45'0 0.0
2016-Jun-30 08:33N 58°51' E 005°45'0 0.0
2016-Jun-30 07:30N 58°51' E 005°45'0 0.0
2016-Jun-30 06:33N 58°51' E 005°45'0 0.0
2016-Jun-30 05:33N 58°51' E 005°45'0 0.0
2016-Jun-30 04:33N 58°51' E 005°45'0 0.0
2016-Jun-30 03:33N 58°51' E 005°45'0 0.0
2016-Jun-30 02:33N 58°51' E 005°45'0 0.0
2016-Jun-30 01:33N 58°51' E 005°45'0 0.0
2016-Jun-30 00:33N 58°51' E 005°45'0 0.0
2016-Jun-29 23:33N 58°51' E 005°45'0 0.0
2016-Jun-29 22:33N 58°51' E 005°45'0 0.0
2016-Jun-29 21:33N 58°51' E 005°45'0 0.0
2016-Jun-29 20:33N 58°51' E 005°45'0 0.0
2016-Jun-29 19:33N 58°51' E 005°45'0 0.0
2016-Jun-29 18:33N 58°51' E 005°45'0 0.0
2016-Jun-29 17:33N 58°51' E 005°45'0 0.0
2016-Jun-29 16:33N 58°51' E 005°45'0 0.0
2016-Jun-29 15:33N 58°51' E 005°45'0 0.0
2016-Jun-29 14:33N 58°51' E 005°45'2 2.2
2016-Jun-29 13:33N 58°54' E 005°45'8 7.9
2016-Jun-29 12:33N 59°01' E 005°41'6 6.4
2016-Jun-29 11:33N 58°56' E 005°33'10 9.6
2016-Jun-29 10:33N 58°48' E 005°24'1111.2
2016-Jun-29 09:33N 58°37' E 005°29'1111.3
2016-Jun-29 08:33N 58°27' E 005°40'1111.4
2016-Jun-29 07:33N 58°18' E 005°55'1111.1
2016-Jun-29 06:32N 58°11' E 006°11'1010.5
2016-Jun-29 05:33N 58°05' E 006°26'1110.6
2016-Jun-29 04:32N 57°59' E 006°44'1010.2
2016-Jun-29 03:34N 57°55' E 007°01'41 9.7
2016-Jun-28 23:21N 58°03' E 008°17'810.4
2016-Jun-28 22:33N 58°07' E 008°31'1110.7
2016-Jun-28 21:33N 58°12' E 008°48'5110.1
2016-Jun-28 16:28N 58°44' E 010°05'11 8.9
2016-Jun-28 15:15N 58°51' E 010°21'6 8.2
2016-Jun-28 14:33N 58°55' E 010°29'8 8.3
2016-Jun-28 13:33N 59°00' E 010°41'9 8.7
2016-Jun-28 12:34N 59°01' E 010°58'1010.3
2016-Jun-28 11:33N 59°11' E 010°57'0 0.2
2016-Jun-28 10:32N 59°11' E 010°57'0 0.0
2016-Jun-28 09:32N 59°11' E 010°57'0 0.0
2016-Jun-28 08:32N 59°11' E 010°57'0 0.0
2016-Jun-28 07:32N 59°11' E 010°57'0 0.0
2016-Jun-28 06:32N 59°11' E 010°57'0 0.0
2016-Jun-28 04:32N 59°11' E 010°57'0 0.0
2016-Jun-28 03:32N 59°11' E 010°57'0 0.0
2016-Jun-28 02:32N 59°11' E 010°57'0 0.0
2016-Jun-28 01:32N 59°11' E 010°57'0 0.0
2016-Jun-28 00:32N 59°11' E 010°57'0 0.2
2016-Jun-27 23:33N 59°11' E 010°57'5 5.4
2016-Jun-27 22:34N 59°09' E 010°47'10 9.8
2016-Jun-27 21:33N 59°18' E 010°41'9 8.8
2016-Jun-27 20:33N 59°25' E 010°30'0 0.0
2016-Jun-27 19:33N 59°25' E 010°30'0 0.0
2016-Jun-27 18:33N 59°25' E 010°30'0 0.0
2016-Jun-27 17:33N 59°25' E 010°30'7 7.5
2016-Jun-27 16:33N 59°18' E 010°33'1010.3
2016-Jun-27 15:33N 59°07' E 010°35'9 8.9
2016-Jun-27 14:33N 58°59' E 010°31'10 9.8
2016-Jun-27 13:33N 58°51' E 010°20'32210.6
2016-Jun-26 07:16N 54°16' E 005°16'810.2
2016-Jun-26 06:31N 54°09' E 005°10'1010.1
2016-Jun-26 05:33N 53°60' E 005°04'7110.2
2016-Jun-25 22:32N 52°54' E 004°17'2210.9
2016-Jun-25 20:32N 52°36' E 003°58'1211.5
2016-Jun-25 19:28N 52°24' E 003°53'1011.4
2016-Jun-25 18:33N 52°13' E 003°54'1111.3
2016-Jun-25 17:33N 52°03' E 003°59'9 9.5
2016-Jun-25 16:33N 51°57' E 004°11'9 8.8
2016-Jun-25 15:33N 51°54' E 004°25'0 0.2
2016-Jun-25 14:32N 51°54' E 004°25'0 0.0
2016-Jun-25 13:32N 51°54' E 004°25'0 0.0
2016-Jun-25 12:32N 51°54' E 004°25'0 0.0
2016-Jun-25 11:32N 51°54' E 004°25'0 0.0
2016-Jun-25 10:32N 51°54' E 004°25'0 0.0
2016-Jun-25 09:29N 51°54' E 004°25'0 0.0
2016-Jun-25 08:32N 51°54' E 004°25'0 0.0
2016-Jun-25 07:32N 51°54' E 004°25'0 0.0
2016-Jun-25 06:32N 51°54' E 004°25'0 0.0
2016-Jun-25 05:29N 51°54' E 004°25'0 0.0
2016-Jun-25 04:32N 51°54' E 004°25'0 0.0
2016-Jun-25 03:32N 51°54' E 004°25'0 0.0
2016-Jun-25 02:33N 51°54' E 004°25'2 2.2
2016-Jun-25 01:33N 51°54' E 004°28'9 9.0
2016-Jun-25 00:33N 51°49' E 004°41'1111.3
2016-Jun-24 23:33N 51°49' E 004°59'1211.6
2016-Jun-24 22:32N 51°49' E 005°18'56 6.8
2016-Jun-24 14:19N 51°31' E 006°43'  

Dump ship's entire track history